Time;durP1;ratioP1;P1;durP2;ratioP2;P2;SDS_P1;SDS_P2;PMS_P1;PMS_P2;Temp;Humidity;BMP_temperature;BMP_pressure;BME280_temperature;BME280_humidity;BME280_pressure;Samples;Min_cycle;Max_cycle;Signal;HPM_P1;HPM_P2
2021/12/07 00:00:31;;;;;;;6.13;4.00;;;-3272.90;90.20;;;;;;6235192;28;20598;-61
2021/12/07 00:03:32;;;;;;;6.97;3.93;;;-3272.90;90.50;;;;;;6234988;28;20218;-61
2021/12/07 00:06:34;;;;;;;5.33;3.50;;;-3273.00;90.40;;;;;;6250903;28;20194;-61
2021/12/07 00:09:35;;;;;;;5.80;4.10;;;-3272.90;90.20;;;;;;6250907;28;20630;-61
2021/12/07 00:12:39;;;;;;;8.67;4.60;;;-3272.80;90.40;;;;;;6245631;28;20691;-61
2021/12/07 00:15:40;;;;;;;6.07;4.03;;;-3272.70;90.30;;;;;;6210504;28;20615;-60
2021/12/07 00:18:42;;;;;;;4.47;3.53;;;-3272.70;90.40;;;;;;6226132;28;20259;-62
2021/12/07 00:21:44;;;;;;;6.57;3.70;;;-3272.70;90.50;;;;;;6234379;28;20240;-62
2021/12/07 00:24:45;;;;;;;6.30;3.90;;;-3272.90;90.00;;;;;;6234701;28;20595;-62
2021/12/07 00:27:46;;;;;;;6.33;4.00;;;-3272.80;90.00;;;;;;6233760;28;20200;-59
2021/12/07 00:30:49;;;;;;;4.13;3.07;;;-3272.80;90.20;;;;;;6258859;28;20197;-60
2021/12/07 00:34:11;;;;;;;8.40;4.13;;;-3272.70;90.20;;;;;;6234249;28;20191;-60
2021/12/07 00:37:12;;;;;;;8.17;3.97;;;-3272.80;90.10;;;;;;6220832;28;20196;-60
2021/12/07 00:40:15;;;;;;;6.53;3.53;;;-3272.70;90.00;;;;;;6273520;28;20225;-60
2021/12/07 00:43:16;;;;;;;3.03;2.77;;;-3272.60;89.90;;;;;;6238112;28;20190;-60
2021/12/07 00:46:19;;;;;;;4.43;3.37;;;-3272.60;90.30;;;;;;6233700;28;20229;-57
2021/12/07 00:49:21;;;;;;;6.53;3.47;;;-3272.50;90.00;;;;;;6233981;28;20188;-59
2021/12/07 00:52:22;;;;;;;4.40;3.73;;;-3272.60;90.50;;;;;;6233658;28;20186;-59
2021/12/07 00:55:29;;;;;;;7.77;3.67;;;-3272.70;90.30;;;;;;6266081;28;20609;-60
2021/12/07 00:58:30;;;;;;;4.80;3.10;;;-3272.80;89.50;;;;;;6233092;28;20253;-60
2021/12/07 01:01:31;;;;;;;3.47;3.00;;;-3272.70;89.20;;;;;;6233663;28;20182;-57
2021/12/07 01:04:33;;;;;;;8.43;3.50;;;-3272.80;89.10;;;;;;6233154;28;20187;-56
2021/12/07 01:07:54;;;;;;;4.80;2.77;;;-3272.60;89.00;;;;;;6266009;28;21203;-59
2021/12/07 01:27:33;;;;;;;6.00;3.70;;;-3272.30;89.80;;;;;;6257227;28;20180;-59
2021/12/07 01:30:49;;;;;;;4.53;3.20;;;-3272.40;90.00;;;;;;6237874;28;20215;-60
2021/12/07 01:40:51;;;;;;;4.13;2.73;;;-3272.30;90.70;;;;;;6258212;28;20676;-59
2021/12/07 02:00:27;;;;;;;4.97;3.17;;;-3272.50;90.30;;;;;;6226244;28;20215;-59
2021/12/07 02:03:29;;;;;;;4.87;3.30;;;-3272.40;90.00;;;;;;6256608;28;20184;-59
2021/12/07 02:06:30;;;;;;;6.03;3.80;;;-3272.40;89.80;;;;;;6259708;28;20197;-59
2021/12/07 02:09:34;;;;;;;3.97;3.60;;;-3272.30;90.10;;;;;;6208109;28;20225;-58
2021/12/07 02:12:43;;;;;;;4.33;2.93;;;-3272.30;90.40;;;;;;6244656;28;20655;-59
2021/12/07 02:15:44;;;;;;;4.00;3.50;;;-3272.30;90.60;;;;;;6231703;28;20215;-59
2021/12/07 02:18:45;;;;;;;3.97;3.03;;;-3272.40;91.00;;;;;;6248062;28;20309;-59
2021/12/07 02:21:46;;;;;;;6.07;3.80;;;-3272.30;90.40;;;;;;6227656;28;20195;-59
2021/12/07 02:24:53;;;;;;;7.67;3.77;;;-3272.50;90.50;;;;;;6234504;28;20171;-58
2021/12/07 02:27:55;;;;;;;4.20;3.53;;;-3272.50;90.20;;;;;;6223791;28;20198;-58
2021/12/07 02:30:55;;;;;;;4.00;3.37;;;-3272.40;89.80;;;;;;6218826;28;20248;-60
2021/12/07 02:33:58;;;;;;;4.13;3.20;;;-3272.40;89.80;;;;;;6217668;28;20190;-59
2021/12/07 02:37:00;;;;;;;3.67;2.77;;;-3272.30;89.50;;;;;;6232933;28;20201;-59
2021/12/07 02:40:06;;;;;;;3.80;2.80;;;-3272.30;89.50;;;;;;6231736;28;20243;-60
2021/12/07 02:43:07;;;;;;;3.67;2.63;;;-3272.30;89.20;;;;;;6251146;28;20189;-59
2021/12/07 02:46:08;;;;;;;4.63;2.50;;;-3272.20;88.90;;;;;;6240111;28;20243;-59
2021/12/07 02:49:09;;;;;;;3.97;2.47;;;-3272.20;89.40;;;;;;6256568;28;20620;-59
2021/12/07 02:52:12;;;;;;;3.73;2.70;;;-3272.20;89.30;;;;;;6225315;28;20285;-59
2021/12/07 02:55:14;;;;;;;2.70;2.50;;;-3272.20;89.70;;;;;;6273612;28;21014;-59
2021/12/07 02:58:16;;;;;;;4.30;3.03;;;-3272.20;89.60;;;;;;6235033;28;20700;-60
2021/12/07 03:01:23;;;;;;;4.70;3.80;;;-3272.10;89.80;;;;;;6231671;28;20643;-60
2021/12/07 03:04:32;;;;;;;4.57;3.30;;;-3272.00;90.10;;;;;;6233820;28;20689;-59
2021/12/07 03:27:28;;;;;;;4.30;3.07;;;-3272.10;90.50;;;;;;6245652;28;20590;-60
2021/12/07 03:30:30;;;;;;;8.50;2.97;;;-3272.00;90.60;;;;;;6268601;28;20194;-60
2021/12/07 03:33:33;;;;;;;3.40;3.07;;;-3272.00;90.90;;;;;;6235186;28;20187;-60
2021/12/07 03:36:34;;;;;;;3.87;3.13;;;-3272.00;90.70;;;;;;6243903;28;20641;-60
2021/12/07 03:39:36;;;;;;;5.10;3.60;;;-3272.00;90.40;;;;;;6233027;28;20681;-60
2021/12/07 03:42:38;;;;;;;4.50;3.20;;;-3272.20;90.20;;;;;;6213054;28;20653;-60
2021/12/07 03:45:39;;;;;;;3.43;2.50;;;-3272.20;89.70;;;;;;6247632;28;20640;-59
2021/12/07 03:48:42;;;;;;;5.17;3.10;;;-3272.00;90.00;;;;;;6245637;28;20206;-60
2021/12/07 03:51:44;;;;;;;5.83;3.10;;;-3272.00;90.10;;;;;;6242493;28;20703;-59
2021/12/07 03:54:46;;;;;;;4.10;2.37;;;-3272.00;90.30;;;;;;6257650;28;20674;-61
2021/12/07 03:57:48;;;;;;;3.10;2.47;;;-3272.00;90.20;;;;;;6223971;28;20239;-61
2021/12/07 04:00:51;;;;;;;4.17;3.57;;;-3271.90;90.70;;;;;;6235210;28;20198;-60
2021/12/07 04:03:53;;;;;;;4.53;3.37;;;-3271.90;91.00;;;;;;6251093;28;20273;-60
2021/12/07 04:06:54;;;;;;;6.27;3.27;;;-3271.90;90.70;;;;;;6218857;28;20229;-58
2021/12/07 04:09:56;;;;;;;3.10;2.70;;;-3272.00;90.40;;;;;;6210409;28;20583;-58
2021/12/07 04:12:57;;;;;;;3.50;2.80;;;-3271.90;90.30;;;;;;6248976;28;20626;-59
2021/12/07 04:15:59;;;;;;;4.47;2.53;;;-3271.90;89.90;;;;;;6218779;28;20604;-59
2021/12/07 04:19:02;;;;;;;4.20;3.13;;;-3271.90;89.60;;;;;;6251302;28;20660;-58
2021/12/07 04:22:04;;;;;;;3.47;2.43;;;-3271.90;89.80;;;;;;6251201;28;20637;-58
2021/12/07 04:25:08;;;;;;;3.33;3.03;;;-3271.80;89.80;;;;;;6233957;28;20190;-59
2021/12/07 04:28:09;;;;;;;5.03;2.70;;;-3271.80;89.90;;;;;;6250969;28;20241;-59
2021/12/07 04:31:11;;;;;;;5.63;2.97;;;-3271.70;89.80;;;;;;6239674;28;20203;-58
2021/12/07 04:34:12;;;;;;;4.13;2.97;;;-3271.80;89.70;;;;;;6239491;28;20191;-58
2021/12/07 04:37:13;;;;;;;4.13;3.10;;;-3271.80;90.10;;;;;;6224747;28;20656;-59
2021/12/07 04:40:21;;;;;;;5.83;2.93;;;-3271.70;90.60;;;;;;6233384;28;20229;-58
2021/12/07 04:43:23;;;;;;;4.50;3.20;;;-3271.70;90.70;;;;;;6234037;28;20198;-59
2021/12/07 04:46:34;;;;;;;6.23;3.47;;;-3271.70;90.80;;;;;;6258693;28;20655;-59
2021/12/07 04:50:01;;;;;;;4.10;3.20;;;-3271.80;91.00;;;;;;6242204;28;20187;-59
2021/12/07 04:59:42;;;;;;;5.37;3.60;;;-3271.80;90.60;;;;;;6246919;28;20646;-59
2021/12/07 05:02:46;;;;;;;7.43;3.60;;;-3271.80;90.40;;;;;;6232532;28;20729;-58
2021/12/07 05:05:50;;;;;;;3.83;3.37;;;-3271.70;90.70;;;;;;6225711;28;20207;-59
2021/12/07 05:08:58;;;;;;;5.70;3.77;;;-3271.70;90.90;;;;;;6230398;28;20633;-58
2021/12/07 05:15:15;;;;;;;5.07;3.13;;;-3271.80;91.40;;;;;;6249939;28;20648;-55
2021/12/07 05:24:54;;;;;;;5.33;3.80;;;-3271.80;90.70;;;;;;6250491;28;20646;-57
2021/12/07 05:37:58;;;;;;;6.40;3.90;;;-3271.80;90.40;;;;;;6256151;28;20230;-59
2021/12/07 05:40:59;;;;;;;6.90;4.20;;;-3271.80;90.30;;;;;;6236506;28;20627;-59
2021/12/07 05:44:01;;;;;;;5.73;4.50;;;-3272.00;89.90;;;;;;6257807;28;20611;-60
2021/12/07 05:47:07;;;;;;;5.87;3.60;;;-3271.80;89.20;;;;;;6227900;28;20676;-59
2021/12/07 05:50:11;;;;;;;6.73;4.27;;;-3271.70;89.50;;;;;;6224546;28;20597;-59
2021/12/07 05:53:12;;;;;;;6.37;3.90;;;-3271.70;89.20;;;;;;6227188;28;20708;-60
2021/12/07 05:56:13;;;;;;;8.50;5.07;;;-3271.80;89.80;;;;;;6251192;28;20747;-59
2021/12/07 05:59:14;;;;;;;6.73;4.13;;;-3271.80;89.20;;;;;;6249091;28;20652;-59
2021/12/07 06:02:15;;;;;;;8.63;5.00;;;-3271.80;89.30;;;;;;6248840;28;20214;-59
2021/12/07 06:05:16;;;;;;;6.20;4.00;;;-3271.80;89.60;;;;;;6214648;28;20677;-60
2021/12/07 06:08:17;;;;;;;6.63;4.43;;;-3271.70;89.70;;;;;;6239151;28;20267;-61
2021/12/07 06:11:21;;;;;;;6.37;4.63;;;-3271.70;90.10;;;;;;6257215;28;20191;-60
2021/12/07 06:14:29;;;;;;;8.20;4.30;;;-3271.70;90.20;;;;;;6226111;28;20198;-60
2021/12/07 06:17:30;;;;;;;8.30;4.33;;;-3271.60;90.10;;;;;;6231179;28;20211;-60
2021/12/07 06:20:31;;;;;;;10.53;4.60;;;-3271.70;89.80;;;;;;6251463;28;20641;-60
2021/12/07 06:23:33;;;;;;;9.67;5.40;;;-3271.80;89.60;;;;;;6244378;28;20272;-60
2021/12/07 06:26:34;;;;;;;7.73;4.23;;;-3271.60;88.90;;;;;;6254416;28;20661;-60
2021/12/07 06:29:35;;;;;;;8.23;4.73;;;-3271.60;89.10;;;;;;6215444;28;20635;-60
2021/12/07 06:32:36;;;;;;;8.53;4.10;;;-3271.70;89.50;;;;;;6215565;28;20606;-60
2021/12/07 06:35:37;;;;;;;7.13;3.87;;;-3271.60;89.50;;;;;;6215680;28;20772;-60
2021/12/07 06:38:38;;;;;;;5.43;4.20;;;-3271.70;89.60;;;;;;6232088;28;20218;-60
2021/12/07 06:41:39;;;;;;;11.33;4.87;;;-3271.80;89.40;;;;;;6269581;28;20617;-60
2021/12/07 06:44:40;;;;;;;5.57;3.90;;;-3271.90;88.70;;;;;;6233291;28;119817;-57
2021/12/07 06:47:41;;;;;;;7.63;3.97;;;-3271.70;88.90;;;;;;6232069;28;20231;-59
2021/12/07 06:50:42;;;;;;;7.07;4.67;;;-3271.80;88.60;;;;;;6216474;28;20622;-59
2021/12/07 06:53:43;;;;;;;6.73;4.63;;;-3271.80;88.50;;;;;;6232914;28;20632;-59
2021/12/07 06:56:44;;;;;;;9.53;4.23;;;-3271.70;88.50;;;;;;6236136;28;20644;-59
2021/12/07 06:59:46;;;;;;;7.50;4.73;;;-3271.60;88.60;;;;;;6253262;28;20207;-59
2021/12/07 07:02:47;;;;;;;9.03;4.47;;;-3271.70;88.90;;;;;;6252572;28;20609;-59
2021/12/07 07:05:48;;;;;;;6.17;4.80;;;-3271.60;88.80;;;;;;6244995;28;20632;-59
2021/12/07 07:08:50;;;;;;;6.50;4.17;;;-3271.80;89.40;;;;;;6252927;28;20597;-59
2021/12/07 07:11:51;;;;;;;9.10;5.23;;;-3271.90;88.40;;;;;;6236694;28;20197;-58
2021/12/07 07:14:52;;;;;;;8.93;5.43;;;-3271.80;88.70;;;;;;6236324;28;20633;-57
2021/12/07 07:17:53;;;;;;;9.33;5.37;;;-3272.00;87.80;;;;;;6236378;28;20310;-55
2021/12/07 07:20:55;;;;;;;7.27;5.00;;;-3271.90;87.50;;;;;;6259474;28;20632;-59
2021/12/07 07:23:56;;;;;;;9.97;5.50;;;-3271.80;88.00;;;;;;6243353;28;20221;-60
2021/12/07 07:26:58;;;;;;;7.93;4.23;;;-3271.80;88.30;;;;;;6244025;28;20601;-59
2021/12/07 07:29:59;;;;;;;10.33;5.97;;;-3271.80;88.60;;;;;;6215118;28;20202;-59
2021/12/07 07:33:00;;;;;;;9.33;5.47;;;-3271.90;88.60;;;;;;6227315;28;20612;-59
2021/12/07 07:36:01;;;;;;;9.00;4.47;;;-3272.00;88.70;;;;;;6232460;28;20197;-58
2021/12/07 07:39:03;;;;;;;8.40;4.40;;;-3272.10;88.30;;;;;;6251739;28;20307;-56
2021/12/07 07:42:04;;;;;;;9.10;5.00;;;-3272.10;88.30;;;;;;6218982;28;20275;-58
2021/12/07 07:45:19;;;;;;;7.70;5.10;;;-3272.00;87.90;;;;;;6245046;28;20706;-59
2021/12/07 07:48:22;;;;;;;7.07;5.13;;;-3272.20;88.00;;;;;;6227446;28;20637;-59
2021/12/07 07:51:24;;;;;;;11.80;6.00;;;-3272.10;87.90;;;;;;6235316;28;20287;-58
2021/12/07 07:54:25;;;;;;;6.67;4.93;;;-3272.10;88.10;;;;;;6252175;28;20606;-61
2021/12/07 07:57:27;;;;;;;5.67;4.80;;;-3272.10;88.40;;;;;;6242000;28;20327;-60
2021/12/07 08:00:28;;;;;;;7.57;5.10;;;-3272.20;88.40;;;;;;6233746;28;20214;-59
2021/12/07 08:03:29;;;;;;;8.67;4.60;;;-3272.20;88.70;;;;;;6251660;28;20252;-58
2021/12/07 08:06:30;;;;;;;7.53;4.83;;;-3272.20;88.90;;;;;;6234858;28;20261;-58
2021/12/07 08:09:31;;;;;;;7.30;4.77;;;-3272.30;88.70;;;;;;6235596;28;20203;-58
2021/12/07 08:12:32;;;;;;;12.83;5.33;;;-3272.40;88.90;;;;;;6224344;28;20194;-57
2021/12/07 08:15:38;;;;;;;7.83;5.07;;;-3272.40;88.80;;;;;;6235016;28;20193;-59
2021/12/07 08:18:39;;;;;;;7.03;5.50;;;-3272.50;88.60;;;;;;6241253;28;20653;-56
2021/12/07 08:21:40;;;;;;;6.03;4.20;;;-3272.60;88.70;;;;;;6234533;28;20598;-56
2021/12/07 08:24:41;;;;;;;6.63;4.53;;;-3272.70;88.50;;;;;;6221296;28;20187;-58
2021/12/07 08:27:42;;;;;;;6.83;4.17;;;-3272.70;89.20;;;;;;6237902;28;20289;-60
2021/12/07 08:30:43;;;;;;;4.90;4.20;;;-3272.80;88.80;;;;;;6251211;28;20200;-58
2021/12/07 08:33:44;;;;;;;7.00;5.17;;;-3272.80;89.00;;;;;;6250532;28;20198;-58
2021/12/07 08:36:45;;;;;;;7.60;5.20;;;-3272.90;89.00;;;;;;6253156;28;20245;-59
2021/12/07 08:39:46;;;;;;;6.13;4.40;;;-3273.00;88.90;;;;;;6259328;28;20218;-59
2021/12/07 08:42:49;;;;;;;7.33;5.10;;;-3273.10;88.90;;;;;;6222332;28;20187;-58
2021/12/07 08:45:50;;;;;;;10.83;6.00;;;-3273.20;88.90;;;;;;6234064;28;20187;-58
2021/12/07 08:48:51;;;;;;;8.03;4.87;;;-3273.30;88.80;;;;;;6233897;28;20323;-59
2021/12/07 08:51:52;;;;;;;9.20;5.60;;;-3273.50;87.40;;;;;;6236057;28;20187;-59
2021/12/07 09:01:15;;;;;;;7.87;4.47;;;-3274.00;86.50;;;;;;6253127;28;20212;-58
2021/12/07 09:04:17;;;;;;;6.57;4.70;;;-3274.00;86.50;;;;;;6213124;28;20188;-57
2021/12/07 09:07:18;;;;;;;10.23;5.73;;;-3274.00;86.70;;;;;;6237277;28;20190;-58
2021/12/07 09:10:20;;;;;;;10.83;5.40;;;-3274.10;87.00;;;;;;6257861;28;20264;-56
2021/12/07 09:13:23;;;;;;;7.80;4.70;;;-3274.20;87.00;;;;;;6254455;28;20199;-52
2021/12/07 09:16:24;;;;;;;9.13;5.57;;;-3274.20;87.10;;;;;;6254894;28;20201;-57
2021/12/07 09:19:25;;;;;;;8.03;5.60;;;-3274.20;87.20;;;;;;6251753;28;20272;-53
2021/12/07 09:22:28;;;;;;;8.13;5.27;;;-3274.30;86.80;;;;;;6266432;28;20225;-57
2021/12/07 09:25:29;;;;;;;6.97;4.70;;;-3274.40;86.50;;;;;;6262262;28;20179;-57
2021/12/07 09:28:30;;;;;;;9.77;5.40;;;-3274.50;86.10;;;;;;6226466;28;20200;-58
2021/12/07 09:31:31;;;;;;;9.70;5.10;;;-3274.60;86.40;;;;;;6226959;28;20275;-57
2021/12/07 09:34:32;;;;;;;6.57;5.10;;;-3274.70;85.30;;;;;;6220511;28;20205;-58
2021/12/07 09:37:34;;;;;;;8.33;4.67;;;-3274.90;84.30;;;;;;6258848;28;20202;-57
2021/12/07 09:40:35;;;;;;;8.10;5.23;;;-3274.90;84.80;;;;;;6239985;28;20219;-56
2021/12/07 09:43:36;;;;;;;9.13;5.33;;;-3275.00;84.60;;;;;;6258387;28;20198;-55
2021/12/07 09:46:39;;;;;;;8.77;5.17;;;-3275.20;83.50;;;;;;6246979;28;20195;-54
2021/12/07 09:49:40;;;;;;;9.73;5.23;;;-3275.20;83.60;;;;;;6216389;28;20203;-55
2021/12/07 09:52:43;;;;;;;7.43;4.73;;;-3275.50;82.00;;;;;;6226287;28;20207;-55
2021/12/07 09:55:46;;;;;;;9.60;5.20;;;-3275.60;82.50;;;;;;6230303;28;20221;-58
2021/12/07 09:58:50;;;;;;;6.93;4.80;;;-3275.70;82.40;;;;;;6235620;28;20306;-54
2021/12/07 10:01:52;;;;;;;6.80;4.77;;;-3275.70;81.90;;;;;;6247969;28;20255;-55
2021/12/07 10:04:53;;;;;;;8.17;5.30;;;-3275.90;81.50;;;;;;6238736;28;20198;-54
2021/12/07 10:07:53;;;;;;;8.13;4.93;;;-3276.00;82.30;;;;;;6215673;28;20206;-55
2021/12/07 10:10:58;;;;;;;8.30;4.40;;;-3276.20;81.10;;;;;;6257089;28;20249;-55
2021/12/07 10:13:59;;;;;;;10.47;5.83;;;-3276.40;81.40;;;;;;6271586;28;20193;-55
2021/12/07 10:17:00;;;;;;;12.20;6.27;;;-3276.50;80.30;;;;;;6240221;28;20632;-57
2021/12/07 10:20:22;;;;;;;6.53;4.03;;;-3276.60;81.20;;;;;;6239830;28;20293;-52
2021/12/07 10:23:28;;;;;;;7.47;4.83;;;-3276.70;79.10;;;;;;6229540;28;20192;-55
2021/12/07 10:26:31;;;;;;;7.50;5.03;;;0.00;78.00;;;;;;6207391;28;20187;-55
2021/12/07 10:29:33;;;;;;;6.90;4.37;;;0.10;77.80;;;;;;6207820;28;20219;-55
2021/12/07 10:32:39;;;;;;;8.67;4.47;;;0.20;77.60;;;;;;6220764;28;20182;-56
2021/12/07 10:35:40;;;;;;;6.40;4.17;;;0.50;73.40;;;;;;6248536;28;20183;-56
2021/12/07 10:38:46;;;;;;;7.93;4.83;;;0.90;71.80;;;;;;6214933;28;20210;-55
2021/12/07 10:41:58;;;;;;;6.53;4.23;;;1.10;72.30;;;;;;6231644;28;20651;-51
2021/12/07 10:45:01;;;;;;;7.43;5.00;;;1.30;69.20;;;;;;6248189;28;20179;-60
2021/12/07 10:48:23;;;;;;;8.53;3.80;;;1.50;68.10;;;;;;6282917;28;20193;-60
2021/12/07 10:51:23;;;;;;;6.70;3.73;;;1.60;67.90;;;;;;6255354;28;20232;-59
2021/12/07 10:54:27;;;;;;;5.57;3.53;;;1.60;67.20;;;;;;6232398;28;20189;-59
2021/12/07 10:57:41;;;;;;;8.10;3.77;;;1.60;67.40;;;;;;6252853;28;20225;-59
2021/12/07 11:00:46;;;;;;;6.90;4.60;;;1.70;69.10;;;;;;6272904;28;20250;-62
2021/12/07 11:03:46;;;;;;;6.90;3.63;;;1.80;67.00;;;;;;6221235;28;20191;-56
2021/12/07 11:07:06;;;;;;;8.40;4.03;;;1.80;68.40;;;;;;6223069;28;20250;-59
2021/12/07 11:10:17;;;;;;;8.00;4.23;;;1.80;68.50;;;;;;6206994;28;20180;-53
2021/12/07 11:13:24;;;;;;;11.23;4.80;;;1.90;68.80;;;;;;6230583;28;20194;-50
2021/12/07 11:16:25;;;;;;;5.27;3.83;;;2.00;69.10;;;;;;6255963;28;20222;-59
2021/12/07 11:19:25;;;;;;;10.40;4.00;;;2.10;64.90;;;;;;6223626;28;20222;-51
2021/12/07 11:22:34;;;;;;;13.17;4.80;;;2.20;67.50;;;;;;6222654;28;20192;-56
2021/12/07 11:32:14;;;;;;;7.80;4.20;;;2.60;67.30;;;;;;6263045;28;20195;-53
2021/12/07 11:35:20;;;;;;;12.60;5.20;;;2.60;65.90;;;;;;6217956;28;20201;-54
2021/12/07 11:38:29;;;;;;;11.97;5.70;;;2.80;66.00;;;;;;6249228;28;20323;-56
2021/12/07 11:41:32;;;;;;;16.50;5.83;;;3.00;66.00;;;;;;6219291;28;20191;-53
2021/12/07 11:44:53;;;;;;;13.83;7.03;;;3.30;68.20;;;;;;6251920;28;20199;-55
2021/12/07 11:47:57;;;;;;;16.87;6.50;;;3.50;64.80;;;;;;6251924;28;20189;-54
2021/12/07 11:50:58;;;;;;;13.17;6.77;;;3.80;65.20;;;;;;6251695;28;20171;-54
2021/12/07 11:53:59;;;;;;;12.53;8.10;;;4.00;64.40;;;;;;6237587;28;20261;-55
2021/12/07 11:57:02;;;;;;;11.33;7.47;;;4.20;64.50;;;;;;6238022;28;20233;-55
2021/12/07 12:00:08;;;;;;;15.07;8.17;;;4.40;63.50;;;;;;6259439;28;20221;-51
2021/12/07 12:03:14;;;;;;;13.03;7.60;;;4.50;60.00;;;;;;6245897;28;20210;-54
2021/12/07 12:06:15;;;;;;;10.67;7.87;;;4.50;62.80;;;;;;6250665;28;20219;-54
2021/12/07 12:09:17;;;;;;;13.20;7.40;;;4.70;61.90;;;;;;6234820;28;20181;-54
2021/12/07 12:12:43;;;;;;;14.70;8.47;;;4.80;63.00;;;;;;6236362;28;20328;-53
2021/12/07 12:16:10;;;;;;;12.73;7.57;;;5.00;63.10;;;;;;6235650;28;20187;-57
2021/12/07 12:19:16;;;;;;;12.03;7.43;;;5.10;60.50;;;;;;6241662;28;20218;-54
2021/12/07 12:22:25;;;;;;;13.83;8.13;;;5.00;61.00;;;;;;6227709;28;20186;-55
2021/12/07 12:25:27;;;;;;;14.50;8.20;;;5.00;62.00;;;;;;6237259;28;20194;-52
2021/12/07 12:28:47;;;;;;;12.63;7.87;;;5.00;62.90;;;;;;6257880;28;20198;-55
2021/12/07 12:31:54;;;;;;;11.43;7.50;;;5.00;62.30;;;;;;6274070;28;20195;-55
2021/12/07 12:34:56;;;;;;;12.30;8.00;;;5.10;62.20;;;;;;6228717;28;20194;-53
2021/12/07 12:37:58;;;;;;;10.50;8.07;;;5.20;62.00;;;;;;6225429;28;20476;-60
2021/12/07 12:41:07;;;;;;;14.17;8.00;;;5.30;61.10;;;;;;6247629;28;20208;-54
2021/12/07 12:44:13;;;;;;;14.60;7.67;;;5.40;61.70;;;;;;6258161;28;20276;-53
2021/12/07 12:47:19;;;;;;;11.23;7.20;;;5.40;60.70;;;;;;6257863;28;20284;-54
2021/12/07 12:50:25;;;;;;;14.40;8.73;;;5.40;60.90;;;;;;6230337;28;20194;-52
2021/12/07 12:53:31;;;;;;;11.33;6.47;;;5.20;61.10;;;;;;6242298;28;20328;-55
2021/12/07 12:56:36;;;;;;;13.57;7.77;;;5.30;60.60;;;;;;6243495;28;20675;-52
2021/12/07 12:59:42;;;;;;;10.80;6.97;;;5.60;61.80;;;;;;6228035;28;20218;-53
2021/12/07 13:02:50;;;;;;;10.50;7.00;;;5.80;62.30;;;;;;6233552;28;20191;-52
2021/12/07 13:06:01;;;;;;;7.17;5.83;;;6.10;60.50;;;;;;6232379;28;20282;-53
2021/12/07 13:09:24;;;;;;;10.17;6.40;;;7.00;58.70;;;;;;6236218;28;20218;-59
2021/12/07 13:12:34;;;;;;;12.57;5.90;;;7.40;56.20;;;;;;6257634;28;20190;-59
2021/12/07 13:15:35;;;;;;;9.90;5.97;;;9.50;50.60;;;;;;6238499;28;20190;-53
2021/12/07 13:18:39;;;;;;;12.27;6.90;;;10.50;46.60;;;;;;6235772;28;20301;-54
2021/12/07 13:21:42;;;;;;;9.27;6.57;;;11.40;45.30;;;;;;6254906;28;20190;-52
2021/12/07 13:24:43;;;;;;;12.50;6.07;;;11.80;44.50;;;;;;6257722;28;20198;-56
2021/12/07 13:28:02;;;;;;;11.57;7.27;;;13.00;41.50;;;;;;6230029;28;20193;-55
2021/12/07 13:31:15;;;;;;;8.10;5.60;;;12.80;39.90;;;;;;6239596;28;20191;-53
2021/12/07 13:34:24;;;;;;;11.40;5.03;;;12.60;41.20;;;;;;6235464;28;20290;-52
2021/12/07 13:37:44;;;;;;;11.03;6.17;;;12.80;41.80;;;;;;6233988;28;20194;-55
2021/12/07 13:40:46;;;;;;;10.90;6.43;;;11.90;41.80;;;;;;6273440;28;20221;-53
2021/12/07 13:43:50;;;;;;;9.00;5.50;;;11.80;43.20;;;;;;6238633;28;20194;-53
2021/12/07 13:46:53;;;;;;;16.03;6.00;;;11.50;42.70;;;;;;6250748;28;20199;-53
2021/12/07 13:50:01;;;;;;;7.50;5.20;;;11.70;42.10;;;;;;6248736;28;20183;-53
2021/12/07 13:53:02;;;;;;;9.20;5.13;;;11.90;41.30;;;;;;6250353;28;20183;-54
2021/12/07 13:56:04;;;;;;;8.67;5.30;;;11.30;42.40;;;;;;6247203;28;20193;-53
2021/12/07 13:59:17;;;;;;;6.53;4.07;;;11.50;42.30;;;;;;6256538;28;20431;-53
2021/12/07 14:02:18;;;;;;;9.60;4.73;;;12.00;41.50;;;;;;6232239;28;20244;-51
2021/12/07 14:05:23;;;;;;;7.47;5.00;;;11.20;41.10;;;;;;6222466;28;20206;-55
2021/12/07 14:08:28;;;;;;;7.57;5.00;;;10.60;42.40;;;;;;6239180;28;20243;-59
2021/12/07 14:11:28;;;;;;;6.50;5.00;;;10.80;43.70;;;;;;6215943;28;20210;-50
2021/12/07 14:14:29;;;;;;;8.47;4.87;;;10.90;43.70;;;;;;6231920;28;20194;-58
2021/12/07 14:17:42;;;;;;;8.17;4.60;;;11.80;42.30;;;;;;6232202;28;20179;-54
2021/12/07 14:20:49;;;;;;;8.10;5.90;;;11.50;41.00;;;;;;6230991;28;20273;-54
2021/12/07 14:24:02;;;;;;;7.57;4.63;;;10.80;46.20;;;;;;6247955;28;20194;-55
2021/12/07 14:27:04;;;;;;;7.03;4.37;;;9.20;44.40;;;;;;6256694;28;20189;-50
2021/12/07 14:30:12;;;;;;;12.47;4.90;;;8.10;47.60;;;;;;6217484;28;20191;-53
2021/12/07 14:33:13;;;;;;;8.87;4.00;;;7.10;50.30;;;;;;6233886;28;20205;-58
2021/12/07 14:36:20;;;;;;;9.70;4.73;;;6.40;52.80;;;;;;6232228;28;20198;-56
2021/12/07 14:39:28;;;;;;;7.57;4.37;;;5.90;54.40;;;;;;6219817;28;20679;-58
2021/12/07 14:42:31;;;;;;;4.50;3.83;;;5.40;55.50;;;;;;6217102;28;20208;-51
2021/12/07 14:45:32;;;;;;;4.67;3.90;;;5.10;59.00;;;;;;6231362;28;20202;-54
2021/12/07 14:48:33;;;;;;;6.37;4.07;;;4.80;60.30;;;;;;6230977;28;20204;-54
2021/12/07 14:51:34;;;;;;;8.93;4.00;;;4.50;61.20;;;;;;6244989;28;20190;-50
2021/12/07 14:54:35;;;;;;;4.83;3.97;;;4.20;59.90;;;;;;6241961;28;20232;-55
2021/12/07 14:57:38;;;;;;;6.07;3.47;;;3.90;62.60;;;;;;6254059;28;20310;-50
2021/12/07 15:00:39;;;;;;;4.57;3.17;;;3.60;65.50;;;;;;6231194;28;20237;-50
2021/12/07 15:03:46;;;;;;;8.60;4.10;;;3.40;66.60;;;;;;6266155;28;20297;-55
2021/12/07 15:06:56;;;;;;;3.97;3.47;;;3.00;66.10;;;;;;6253398;28;20198;-53
2021/12/07 15:10:05;;;;;;;5.43;3.80;;;2.90;68.40;;;;;;6252393;28;20194;-55
2021/12/07 15:13:05;;;;;;;4.87;3.30;;;2.80;68.90;;;;;;6236029;28;20217;-54
2021/12/07 15:16:10;;;;;;;9.43;3.37;;;2.40;70.40;;;;;;6229826;28;20195;-53
2021/12/07 15:19:11;;;;;;;4.73;3.70;;;2.10;71.20;;;;;;6220456;28;20212;-54
2021/12/07 15:22:14;;;;;;;5.67;3.50;;;1.80;72.10;;;;;;6226885;28;20641;-53
2021/12/07 15:25:15;;;;;;;6.30;3.70;;;1.50;73.70;;;;;;6235885;28;20178;-53
2021/12/07 15:28:16;;;;;;;8.20;4.37;;;1.40;74.60;;;;;;6235706;28;20197;-55
2021/12/07 15:31:19;;;;;;;5.43;4.00;;;1.30;73.60;;;;;;6234184;28;20214;-56
2021/12/07 15:34:23;;;;;;;4.77;3.77;;;1.30;73.80;;;;;;6211242;28;20191;-54
2021/12/07 15:37:27;;;;;;;4.93;3.63;;;1.10;74.50;;;;;;6228528;28;20186;-52
2021/12/07 15:40:27;;;;;;;7.07;3.93;;;1.10;75.60;;;;;;6235538;28;20250;-52
2021/12/07 15:43:29;;;;;;;6.60;4.10;;;0.90;75.80;;;;;;6252037;28;20186;-56
2021/12/07 15:46:31;;;;;;;9.57;4.37;;;0.80;75.60;;;;;;6251813;28;20190;-56
2021/12/07 15:49:38;;;;;;;8.97;4.07;;;0.70;76.50;;;;;;6262598;28;20206;-53
2021/12/07 15:53:02;;;;;;;6.87;3.63;;;0.70;77.80;;;;;;6259068;28;20190;-50
2021/12/07 15:56:04;;;;;;;6.97;4.23;;;0.40;77.10;;;;;;6237337;28;20298;-52
2021/12/07 15:59:13;;;;;;;4.90;3.67;;;0.20;77.30;;;;;;6244887;28;20242;-54
2021/12/07 16:02:21;;;;;;;10.27;3.73;;;0.00;77.20;;;;;;6243861;28;20178;-52
2021/12/07 16:05:22;;;;;;;5.97;4.70;;;0.00;78.40;;;;;;6263170;28;20266;-57
2021/12/07 16:08:28;;;;;;;7.93;4.33;;;0.00;78.90;;;;;;6245087;28;20194;-52
2021/12/07 16:11:30;;;;;;;5.23;3.80;;;-3276.70;79.50;;;;;;6245318;28;20193;-55
2021/12/07 16:14:30;;;;;;;6.60;4.23;;;-3276.70;80.20;;;;;;6220596;28;20522;-55
2021/12/07 16:17:31;;;;;;;5.40;4.40;;;-3276.60;80.40;;;;;;6260506;28;20209;-56
2021/12/07 16:20:33;;;;;;;7.07;3.73;;;-3276.50;80.70;;;;;;6241584;28;20221;-55
2021/12/07 16:23:36;;;;;;;8.63;4.70;;;-3276.50;80.70;;;;;;6203153;28;20194;-56
2021/12/07 16:26:37;;;;;;;11.77;7.53;;;-3276.70;80.50;;;;;;6247111;28;20182;-52
2021/12/07 16:29:39;;;;;;;8.60;6.27;;;-3276.70;79.80;;;;;;6229701;28;20201;-55
2021/12/07 16:32:41;;;;;;;10.10;4.80;;;-3276.50;80.40;;;;;;6247116;28;20224;-51
2021/12/07 16:35:42;;;;;;;8.03;6.50;;;-3276.30;81.20;;;;;;6248862;28;20191;-56
2021/12/07 16:38:45;;;;;;;9.67;5.90;;;-3276.20;81.60;;;;;;6232743;28;20249;-53
2021/12/07 16:41:46;;;;;;;9.00;5.53;;;-3276.00;82.00;;;;;;6232581;28;20217;-49
2021/12/07 16:44:48;;;;;;;8.20;5.40;;;-3276.00;83.40;;;;;;6234015;28;20246;-55
2021/12/07 16:47:50;;;;;;;7.97;5.80;;;-3275.90;83.50;;;;;;6249686;28;20183;-53
2021/12/07 16:50:51;;;;;;;10.37;5.57;;;-3275.90;83.70;;;;;;6245854;28;20193;-51
2021/12/07 16:53:52;;;;;;;8.80;5.57;;;-3275.90;83.50;;;;;;6225439;28;20521;-52
2021/12/07 16:56:53;;;;;;;9.17;5.50;;;-3275.90;83.20;;;;;;6216354;28;20238;-53
2021/12/07 16:59:53;;;;;;;9.47;5.70;;;-3275.80;84.00;;;;;;6250711;28;20302;-55
2021/12/07 17:02:55;;;;;;;11.43;5.43;;;-3275.90;84.40;;;;;;6246826;28;20188;-54
2021/12/07 17:05:55;;;;;;;9.37;5.40;;;-3275.80;83.80;;;;;;6228525;28;20288;-55
2021/12/07 17:08:56;;;;;;;7.20;4.87;;;-3275.70;84.00;;;;;;6249716;28;20197;-53
2021/12/07 17:11:57;;;;;;;7.93;4.67;;;-3275.50;84.30;;;;;;6235401;28;20204;-54